sensor_id;sensor_type;location;lat;lon;timestamp;pressure;altitude;pressure_sealevel;temperature;humidity
5146;BME280;2591;48.144;15.152;2023-01-30T00:01:57;77607.66;;;-144.65;99.64
5146;BME280;2591;48.144;15.152;2023-01-30T00:04:25;77603.56;;;-144.65;99.79
5146;BME280;2591;48.144;15.152;2023-01-30T00:06:52;77607.66;;;-144.65;100.00
5146;BME280;2591;48.144;15.152;2023-01-30T00:09:21;77607.66;;;-144.65;100.00
5146;BME280;2591;48.144;15.152;2023-01-30T00:11:49;77599.50;;;-144.65;100.00
5146;BME280;2591;48.144;15.152;2023-01-30T00:14:18;77599.50;;;-144.65;100.00
5146;BME280;2591;48.144;15.152;2023-01-30T00:16:46;77599.50;;;-144.65;100.00
5146;BME280;2591;48.144;15.152;2023-01-30T00:19:14;77599.50;;;-144.65;100.00
5146;BME280;2591;48.144;15.152;2023-01-30T00:21:41;77591.31;;;-144.65;100.00
5146;BME280;2591;48.144;15.152;2023-01-30T00:24:09;77591.31;;;-144.65;100.00
5146;BME280;2591;48.144;15.152;2023-01-30T00:26:37;77589.28;;;-144.65;99.67
5146;BME280;2591;48.144;15.152;2023-01-30T00:29:05;77583.16;;;-144.65;99.01
5146;BME280;2591;48.144;15.152;2023-01-30T00:31:35;77579.09;;;-144.65;99.02
5146;BME280;2591;48.144;15.152;2023-01-30T00:34:03;77583.16;;;-144.65;99.05
5146;BME280;2591;48.144;15.152;2023-01-30T00:36:31;77577.06;;;-144.65;99.04
5146;BME280;2591;48.144;15.152;2023-01-30T00:38:59;77562.78;;;-144.65;98.23
5146;BME280;2591;48.144;15.152;2023-01-30T00:41:27;77560.72;;;-144.65;97.30
5146;BME280;2591;48.144;15.152;2023-01-30T00:44:15;77566.84;;;-144.65;97.31
5146;BME280;2591;48.144;15.152;2023-01-30T00:47:02;77568.91;;;-144.65;97.59
5146;BME280;2591;48.144;15.152;2023-01-30T00:49:35;77560.72;;;-144.65;98.15
5146;BME280;2591;48.144;15.152;2023-01-30T00:52:04;77558.69;;;-144.65;97.72
5146;BME280;2591;48.144;15.152;2023-01-30T00:54:32;77562.78;;;-144.65;97.63
5146;BME280;2591;48.144;15.152;2023-01-30T00:57:01;77562.78;;;-144.65;97.55
5146;BME280;2591;48.144;15.152;2023-01-30T00:59:29;77566.84;;;-144.65;98.15
5146;BME280;2591;48.144;15.152;2023-01-30T01:01:57;77562.78;;;-144.65;98.62
5146;BME280;2591;48.144;15.152;2023-01-30T01:04:27;77560.72;;;-144.65;98.27
5146;BME280;2591;48.144;15.152;2023-01-30T01:06:54;77558.69;;;-144.65;98.31
5146;BME280;2591;48.144;15.152;2023-01-30T01:09:22;77556.66;;;-144.65;98.54
5146;BME280;2591;48.144;15.152;2023-01-30T01:11:50;77552.56;;;-144.65;98.80
5146;BME280;2591;48.144;15.152;2023-01-30T01:14:18;77554.63;;;-144.65;98.72
5146;BME280;2591;48.144;15.152;2023-01-30T01:16:46;77550.53;;;-144.65;98.05
5146;BME280;2591;48.144;15.152;2023-01-30T01:19:15;77538.28;;;-144.65;97.75
5146;BME280;2591;48.144;15.152;2023-01-30T01:21:44;77542.38;;;-144.65;97.44
5146;BME280;2591;48.144;15.152;2023-01-30T01:24:14;77526.06;;;-144.65;97.11
5146;BME280;2591;48.144;15.152;2023-01-30T01:26:43;77517.91;;;-144.65;96.98
5146;BME280;2591;48.144;15.152;2023-01-30T01:29:15;77517.91;;;-144.65;96.38
5146;BME280;2591;48.144;15.152;2023-01-30T01:31:43;77515.84;;;-144.65;96.50
5146;BME280;2591;48.144;15.152;2023-01-30T01:34:11;77513.81;;;-144.65;96.61
5146;BME280;2591;48.144;15.152;2023-01-30T01:36:39;77509.75;;;-144.65;96.52
5146;BME280;2591;48.144;15.152;2023-01-30T01:39:21;77524.03;;;-144.65;96.90
5146;BME280;2591;48.144;15.152;2023-01-30T01:41:49;77524.03;;;-144.65;97.05
5146;BME280;2591;48.144;15.152;2023-01-30T01:44:16;77536.25;;;-144.65;97.84
5146;BME280;2591;48.144;15.152;2023-01-30T01:46:47;77511.78;;;-144.65;97.61
5146;BME280;2591;48.144;15.152;2023-01-30T01:49:20;77513.81;;;-144.65;97.08
5146;BME280;2591;48.144;15.152;2023-01-30T01:51:53;77509.75;;;-144.65;96.93
5146;BME280;2591;48.144;15.152;2023-01-30T01:54:28;77501.59;;;-144.65;96.19
5146;BME280;2591;48.144;15.152;2023-01-30T01:57:00;77505.66;;;-144.65;96.29
5146;BME280;2591;48.144;15.152;2023-01-30T01:59:31;77505.66;;;-144.65;96.50
5146;BME280;2591;48.144;15.152;2023-01-30T02:02:10;77501.59;;;-144.65;96.80
5146;BME280;2591;48.144;15.152;2023-01-30T02:04:41;77505.66;;;-144.65;97.11
5146;BME280;2591;48.144;15.152;2023-01-30T02:07:33;77507.69;;;-144.65;97.55
5146;BME280;2591;48.144;15.152;2023-01-30T02:10:06;77501.59;;;-144.65;97.32
5146;BME280;2591;48.144;15.152;2023-01-30T02:12:35;77485.28;;;-144.65;96.82
5146;BME280;2591;48.144;15.152;2023-01-30T02:15:05;77477.09;;;-144.65;96.45
5146;BME280;2591;48.144;15.152;2023-01-30T02:17:33;77475.06;;;-144.65;96.59
5146;BME280;2591;48.144;15.152;2023-01-30T02:20:04;77473.03;;;-144.65;96.03
5146;BME280;2591;48.144;15.152;2023-01-30T02:22:48;77460.78;;;-144.65;95.82
5146;BME280;2591;48.144;15.152;2023-01-30T02:25:48;77460.78;;;-144.65;95.81
5146;BME280;2591;48.144;15.152;2023-01-30T02:31:34;77446.50;;;-144.65;94.84
5146;BME280;2591;48.144;15.152;2023-01-30T02:34:20;77432.25;;;-144.65;93.81
5146;BME280;2591;48.144;15.152;2023-01-30T02:37:01;77444.47;;;-144.65;93.93
5146;BME280;2591;48.144;15.152;2023-01-30T02:39:43;77426.13;;;-144.65;93.64
5146;BME280;2591;48.144;15.152;2023-01-30T02:42:21;77428.16;;;-144.65;93.48
5146;BME280;2591;48.144;15.152;2023-01-30T02:44:54;77432.25;;;-144.65;93.57
5146;BME280;2591;48.144;15.152;2023-01-30T02:47:31;77432.25;;;-144.65;93.53
5146;BME280;2591;48.144;15.152;2023-01-30T02:50:05;77440.41;;;-144.65;94.23
5146;BME280;2591;48.144;15.152;2023-01-30T02:52:35;77440.41;;;-144.65;94.17
5146;BME280;2591;48.144;15.152;2023-01-30T02:55:07;77432.25;;;-144.65;93.73
5146;BME280;2591;48.144;15.152;2023-01-30T02:57:35;77415.91;;;-144.65;92.83
5146;BME280;2591;48.144;15.152;2023-01-30T03:00:04;77411.84;;;-144.65;91.88
5146;BME280;2591;48.144;15.152;2023-01-30T03:02:48;77409.81;;;-144.65;92.17
5146;BME280;2591;48.144;15.152;2023-01-30T03:05:42;77428.16;;;-144.65;92.38
5146;BME280;2591;48.144;15.152;2023-01-30T03:08:22;77432.25;;;-144.65;93.11
5146;BME280;2591;48.144;15.152;2023-01-30T03:10:57;77436.31;;;-144.65;93.84
5146;BME280;2591;48.144;15.152;2023-01-30T03:13:39;77420.00;;;-144.65;93.29
5146;BME280;2591;48.144;15.152;2023-01-30T03:16:14;77428.16;;;-144.65;93.40
5146;BME280;2591;48.144;15.152;2023-01-30T03:18:46;77426.13;;;-144.65;93.31
5146;BME280;2591;48.144;15.152;2023-01-30T03:21:14;77420.00;;;-144.65;93.02
5146;BME280;2591;48.144;15.152;2023-01-30T03:23:44;77417.97;;;-144.65;92.67
5146;BME280;2591;48.144;15.152;2023-01-30T03:26:16;77420.00;;;-144.65;93.06
5146;BME280;2591;48.144;15.152;2023-01-30T03:28:48;77420.00;;;-144.65;93.28
5146;BME280;2591;48.144;15.152;2023-01-30T03:31:16;77411.84;;;-144.65;93.03
5146;BME280;2591;48.144;15.152;2023-01-30T03:33:45;77424.09;;;-144.65;93.13
5146;BME280;2591;48.144;15.152;2023-01-30T03:36:14;77407.75;;;-144.65;93.16
5146;BME280;2591;48.144;15.152;2023-01-30T03:38:42;77424.09;;;-144.65;92.75
5146;BME280;2591;48.144;15.152;2023-01-30T03:41:10;77432.25;;;-144.65;92.86
5146;BME280;2591;48.144;15.152;2023-01-30T03:43:37;77436.31;;;-144.65;93.41
5146;BME280;2591;48.144;15.152;2023-01-30T03:46:05;77432.25;;;-144.65;93.17
5146;BME280;2591;48.144;15.152;2023-01-30T03:48:33;77420.00;;;-144.65;93.41
5146;BME280;2591;48.144;15.152;2023-01-30T03:51:03;77428.16;;;-144.65;93.48
5146;BME280;2591;48.144;15.152;2023-01-30T03:53:31;77428.16;;;-144.65;93.68
5146;BME280;2591;48.144;15.152;2023-01-30T03:55:59;77430.19;;;-144.65;94.36
5146;BME280;2591;48.144;15.152;2023-01-30T03:58:26;77436.31;;;-144.65;94.87
5146;BME280;2591;48.144;15.152;2023-01-30T04:00:54;77428.16;;;-144.65;95.48
5146;BME280;2591;48.144;15.152;2023-01-30T04:03:23;77424.09;;;-144.65;95.10
5146;BME280;2591;48.144;15.152;2023-01-30T04:05:52;77424.09;;;-144.65;94.84
5146;BME280;2591;48.144;15.152;2023-01-30T04:08:21;77432.25;;;-144.65;94.73
5146;BME280;2591;48.144;15.152;2023-01-30T04:10:49;77426.13;;;-144.65;94.89
5146;BME280;2591;48.144;15.152;2023-01-30T04:13:17;77432.25;;;-144.65;95.32
5146;BME280;2591;48.144;15.152;2023-01-30T04:15:44;77422.03;;;-144.65;95.38
5146;BME280;2591;48.144;15.152;2023-01-30T04:18:12;77428.16;;;-144.65;95.30
5146;BME280;2591;48.144;15.152;2023-01-30T04:20:40;77432.25;;;-144.65;95.43
5146;BME280;2591;48.144;15.152;2023-01-30T04:23:08;77411.84;;;-144.65;95.37
5146;BME280;2591;48.144;15.152;2023-01-30T04:25:37;77417.97;;;-144.65;95.31
5146;BME280;2591;48.144;15.152;2023-01-30T04:28:05;77415.91;;;-144.65;95.36
5146;BME280;2591;48.144;15.152;2023-01-30T04:30:33;77407.75;;;-144.65;95.60
5146;BME280;2591;48.144;15.152;2023-01-30T04:33:01;77403.69;;;-144.65;94.87
5146;BME280;2591;48.144;15.152;2023-01-30T04:35:29;77409.81;;;-144.65;95.26
5146;BME280;2591;48.144;15.152;2023-01-30T04:37:56;77422.03;;;-144.65;95.59
5146;BME280;2591;48.144;15.152;2023-01-30T04:40:24;77415.91;;;-144.65;95.87
5146;BME280;2591;48.144;15.152;2023-01-30T04:42:53;77430.19;;;-144.65;95.30
5146;BME280;2591;48.144;15.152;2023-01-30T04:45:21;77420.00;;;-144.65;94.86
5146;BME280;2591;48.144;15.152;2023-01-30T04:47:49;77415.91;;;-144.65;94.77
5146;BME280;2591;48.144;15.152;2023-01-30T04:50:18;77436.31;;;-144.65;95.44
5146;BME280;2591;48.144;15.152;2023-01-30T04:52:46;77446.50;;;-144.65;95.50
5146;BME280;2591;48.144;15.152;2023-01-30T04:55:13;77440.41;;;-144.65;95.60
5146;BME280;2591;48.144;15.152;2023-01-30T04:57:42;77446.50;;;-144.65;95.77
5146;BME280;2591;48.144;15.152;2023-01-30T05:00:12;77436.31;;;-144.65;96.25
5146;BME280;2591;48.144;15.152;2023-01-30T05:02:40;77436.31;;;-144.65;96.25
5146;BME280;2591;48.144;15.152;2023-01-30T05:05:08;77444.47;;;-144.65;96.39
5146;BME280;2591;48.144;15.152;2023-01-30T05:07:36;77436.31;;;-144.65;96.20
5146;BME280;2591;48.144;15.152;2023-01-30T05:10:05;77432.25;;;-144.65;96.40
5146;BME280;2591;48.144;15.152;2023-01-30T05:12:33;77422.03;;;-144.65;95.22
5146;BME280;2591;48.144;15.152;2023-01-30T05:15:01;77422.03;;;-144.65;94.79
5146;BME280;2591;48.144;15.152;2023-01-30T05:17:30;77411.84;;;-144.65;95.11
5146;BME280;2591;48.144;15.152;2023-01-30T05:19:59;77407.75;;;-144.65;94.85
5146;BME280;2591;48.144;15.152;2023-01-30T05:22:27;77407.75;;;-144.65;95.11
5146;BME280;2591;48.144;15.152;2023-01-30T05:24:54;77411.84;;;-144.65;95.30
5146;BME280;2591;48.144;15.152;2023-01-30T05:27:23;77403.69;;;-144.65;94.86
5146;BME280;2591;48.144;15.152;2023-01-30T05:29:51;77407.75;;;-144.65;94.79
5146;BME280;2591;48.144;15.152;2023-01-30T05:32:19;77405.72;;;-144.65;94.19
5146;BME280;2591;48.144;15.152;2023-01-30T05:34:48;77413.88;;;-144.65;93.98
5146;BME280;2591;48.144;15.152;2023-01-30T05:37:17;77436.31;;;-144.65;94.08
5146;BME280;2591;48.144;15.152;2023-01-30T05:39:44;77424.09;;;-144.65;94.02
5146;BME280;2591;48.144;15.152;2023-01-30T05:42:13;77420.00;;;-144.65;93.76
5146;BME280;2591;48.144;15.152;2023-01-30T05:44:41;77405.72;;;-144.65;93.06
5146;BME280;2591;48.144;15.152;2023-01-30T05:47:09;77403.69;;;-144.65;92.00
5146;BME280;2591;48.144;15.152;2023-01-30T05:49:37;77403.69;;;-144.65;91.77
5146;BME280;2591;48.144;15.152;2023-01-30T05:52:06;77409.81;;;-144.65;91.30
5146;BME280;2591;48.144;15.152;2023-01-30T05:54:34;77428.16;;;-144.65;91.46
5146;BME280;2591;48.144;15.152;2023-01-30T05:57:04;77407.75;;;-144.65;90.55
5146;BME280;2591;48.144;15.152;2023-01-30T05:59:31;77403.69;;;-144.65;89.54
5146;BME280;2591;48.144;15.152;2023-01-30T06:01:59;77393.47;;;-144.65;88.82
5146;BME280;2591;48.144;15.152;2023-01-30T06:04:27;77395.53;;;-144.65;88.51
5146;BME280;2591;48.144;15.152;2023-01-30T06:06:55;77375.13;;;-144.65;88.46
5146;BME280;2591;48.144;15.152;2023-01-30T06:09:24;77375.13;;;-144.65;88.33
5146;BME280;2591;48.144;15.152;2023-01-30T06:11:52;77379.22;;;-144.65;88.02
5146;BME280;2591;48.144;15.152;2023-01-30T06:14:21;77387.38;;;-144.65;88.23
5146;BME280;2591;48.144;15.152;2023-01-30T06:16:49;77371.06;;;-144.65;87.96
5146;BME280;2591;48.144;15.152;2023-01-30T06:19:17;77371.06;;;-144.65;87.52
5146;BME280;2591;48.144;15.152;2023-01-30T06:21:45;77352.69;;;-144.65;87.21
5146;BME280;2591;48.144;15.152;2023-01-30T06:24:13;77364.94;;;-144.65;86.97
5146;BME280;2591;48.144;15.152;2023-01-30T06:26:42;77348.63;;;-144.65;87.25
5146;BME280;2591;48.144;15.152;2023-01-30T06:29:10;77350.66;;;-144.65;87.66
5146;BME280;2591;48.144;15.152;2023-01-30T06:31:38;77342.50;;;-144.65;87.63
5146;BME280;2591;48.144;15.152;2023-01-30T06:34:06;77342.50;;;-144.65;87.41
5146;BME280;2591;48.144;15.152;2023-01-30T06:36:34;77342.50;;;-144.65;87.23
5146;BME280;2591;48.144;15.152;2023-01-30T06:39:02;77338.41;;;-144.65;87.16
5146;BME280;2591;48.144;15.152;2023-01-30T06:41:30;77334.34;;;-144.65;86.43
5146;BME280;2591;48.144;15.152;2023-01-30T06:43:59;77334.34;;;-144.65;86.11
5146;BME280;2591;48.144;15.152;2023-01-30T06:46:27;77350.66;;;-144.65;86.67
5146;BME280;2591;48.144;15.152;2023-01-30T06:48:55;77350.66;;;-144.65;86.97
5146;BME280;2591;48.144;15.152;2023-01-30T06:51:23;77334.34;;;-144.65;87.05
5146;BME280;2591;48.144;15.152;2023-01-30T06:53:53;77334.34;;;-144.65;86.86
5146;BME280;2591;48.144;15.152;2023-01-30T06:56:20;77346.56;;;-144.65;87.27
5146;BME280;2591;48.144;15.152;2023-01-30T06:58:48;77338.41;;;-144.65;87.14
5146;BME280;2591;48.144;15.152;2023-01-30T07:01:17;77338.41;;;-144.65;87.53
5146;BME280;2591;48.144;15.152;2023-01-30T07:03:46;77336.38;;;-144.65;87.80
5146;BME280;2591;48.144;15.152;2023-01-30T07:06:15;77342.50;;;-144.65;87.36
5146;BME280;2591;48.144;15.152;2023-01-30T07:08:42;77344.53;;;-144.65;87.11
5146;BME280;2591;48.144;15.152;2023-01-30T07:11:11;77338.41;;;-144.65;87.29
5146;BME280;2591;48.144;15.152;2023-01-30T07:13:39;77334.34;;;-144.65;87.17
5146;BME280;2591;48.144;15.152;2023-01-30T07:16:07;77346.56;;;-144.65;87.34
5146;BME280;2591;48.144;15.152;2023-01-30T07:18:36;77350.66;;;-144.65;87.80
5146;BME280;2591;48.144;15.152;2023-01-30T07:21:04;77344.53;;;-144.65;87.84
5146;BME280;2591;48.144;15.152;2023-01-30T07:23:32;77354.72;;;-144.65;88.13
5146;BME280;2591;48.144;15.152;2023-01-30T07:26:02;77346.56;;;-144.65;87.87
5146;BME280;2591;48.144;15.152;2023-01-30T07:28:30;77354.72;;;-144.65;87.53
5146;BME280;2591;48.144;15.152;2023-01-30T07:30:58;77346.56;;;-144.65;87.71
5146;BME280;2591;48.144;15.152;2023-01-30T07:33:26;77338.41;;;-144.65;87.50
5146;BME280;2591;48.144;15.152;2023-01-30T07:35:56;77340.47;;;-144.65;87.57
5146;BME280;2591;48.144;15.152;2023-01-30T07:38:24;77334.34;;;-144.65;87.29
5146;BME280;2591;48.144;15.152;2023-01-30T07:40:51;77313.94;;;-144.65;86.48
5146;BME280;2591;48.144;15.152;2023-01-30T07:43:19;77322.09;;;-144.65;86.56
5146;BME280;2591;48.144;15.152;2023-01-30T07:45:48;77313.94;;;-144.65;86.53
5146;BME280;2591;48.144;15.152;2023-01-30T07:48:17;77297.63;;;-144.65;86.26
5146;BME280;2591;48.144;15.152;2023-01-30T07:50:45;77297.63;;;-144.65;86.34
5146;BME280;2591;48.144;15.152;2023-01-30T07:53:16;77281.31;;;-144.65;86.00
5146;BME280;2591;48.144;15.152;2023-01-30T07:55:44;77281.31;;;-144.65;85.58
5146;BME280;2591;48.144;15.152;2023-01-30T07:58:12;77269.06;;;-144.65;85.47
5146;BME280;2591;48.144;15.152;2023-01-30T08:00:41;77271.13;;;-144.65;85.16
5146;BME280;2591;48.144;15.152;2023-01-30T08:03:11;77252.75;;;-144.65;85.20
5146;BME280;2591;48.144;15.152;2023-01-30T08:05:39;77242.56;;;-144.65;85.75
5146;BME280;2591;48.144;15.152;2023-01-30T08:08:07;77232.38;;;-144.65;85.40
5146;BME280;2591;48.144;15.152;2023-01-30T08:10:37;77230.31;;;-144.65;85.07
5146;BME280;2591;48.144;15.152;2023-01-30T08:13:05;77214.00;;;-144.65;84.50
5146;BME280;2591;48.144;15.152;2023-01-30T08:15:34;77207.88;;;-144.65;84.15
5146;BME280;2591;48.144;15.152;2023-01-30T08:18:02;77203.81;;;-144.65;83.42
5146;BME280;2591;48.144;15.152;2023-01-30T08:20:30;77191.56;;;-144.65;83.27
5146;BME280;2591;48.144;15.152;2023-01-30T08:22:59;77187.50;;;-144.65;83.42
5146;BME280;2591;48.144;15.152;2023-01-30T08:25:28;77214.00;;;-144.65;83.67
5146;BME280;2591;48.144;15.152;2023-01-30T08:27:59;77205.84;;;-144.65;83.90
5146;BME280;2591;48.144;15.152;2023-01-30T08:30:28;77218.09;;;-144.65;84.15
5146;BME280;2591;48.144;15.152;2023-01-30T08:32:57;77207.88;;;-144.65;83.32
5146;BME280;2591;48.144;15.152;2023-01-30T08:35:25;77220.13;;;-144.65;82.99
5146;BME280;2591;48.144;15.152;2023-01-30T08:37:53;77211.97;;;-144.65;83.13
5146;BME280;2591;48.144;15.152;2023-01-30T08:40:21;77207.88;;;-144.65;83.05
5146;BME280;2591;48.144;15.152;2023-01-30T08:42:48;77203.81;;;-144.65;83.00
5146;BME280;2591;48.144;15.152;2023-01-30T08:45:18;77187.50;;;-144.65;82.84
5146;BME280;2591;48.144;15.152;2023-01-30T08:47:45;77171.19;;;-144.65;82.36
5146;BME280;2591;48.144;15.152;2023-01-30T08:50:13;77183.41;;;-144.65;82.90
5146;BME280;2591;48.144;15.152;2023-01-30T08:52:42;77195.66;;;-144.65;83.20
5146;BME280;2591;48.144;15.152;2023-01-30T08:55:10;77191.56;;;-144.65;83.35
5146;BME280;2591;48.144;15.152;2023-01-30T08:57:37;77187.50;;;-144.65;83.15
5146;BME280;2591;48.144;15.152;2023-01-30T09:00:07;77191.56;;;-144.65;83.10
5146;BME280;2591;48.144;15.152;2023-01-30T09:02:36;77183.41;;;-144.65;82.45
5146;BME280;2591;48.144;15.152;2023-01-30T09:05:06;77185.47;;;-144.65;82.69
5146;BME280;2591;48.144;15.152;2023-01-30T09:07:34;77199.72;;;-144.65;82.86
5146;BME280;2591;48.144;15.152;2023-01-30T09:10:02;77195.66;;;-144.65;83.06
5146;BME280;2591;48.144;15.152;2023-01-30T09:12:30;77197.69;;;-144.65;83.25
5146;BME280;2591;48.144;15.152;2023-01-30T09:14:58;77171.19;;;-144.65;83.23
5146;BME280;2591;48.144;15.152;2023-01-30T09:17:26;77154.88;;;-144.65;82.41
5146;BME280;2591;48.144;15.152;2023-01-30T09:19:55;77142.63;;;-144.65;82.17
5146;BME280;2591;48.144;15.152;2023-01-30T09:22:23;77122.22;;;-144.65;81.71
5146;BME280;2591;48.144;15.152;2023-01-30T09:24:54;77101.84;;;-144.65;81.41
5146;BME280;2591;48.144;15.152;2023-01-30T09:27:21;77089.59;;;-144.65;80.71
5146;BME280;2591;48.144;15.152;2023-01-30T09:29:49;77079.41;;;-144.65;80.74
5146;BME280;2591;48.144;15.152;2023-01-30T09:32:17;77056.97;;;-144.65;80.30
5146;BME280;2591;48.144;15.152;2023-01-30T09:34:45;77040.66;;;-144.65;79.35
5146;BME280;2591;48.144;15.152;2023-01-30T09:37:14;77001.91;;;-144.65;79.29
5146;BME280;2591;48.144;15.152;2023-01-30T09:39:42;76946.84;;;-144.65;76.98
5146;BME280;2591;48.144;15.152;2023-01-30T09:45:27;76916.25;;;-144.65;75.43
5146;BME280;2591;48.144;15.152;2023-01-30T09:48:05;76942.78;;;-144.65;74.93
5146;BME280;2591;48.144;15.152;2023-01-30T09:50:50;76957.03;;;-144.65;75.32
5146;BME280;2591;48.144;15.152;2023-01-30T09:53:30;76971.31;;;-144.65;75.10
5146;BME280;2591;48.144;15.152;2023-01-30T09:56:02;76971.31;;;-144.65;75.83
5146;BME280;2591;48.144;15.152;2023-01-30T09:58:39;76957.03;;;-144.65;75.87
5146;BME280;2591;48.144;15.152;2023-01-30T10:01:15;76950.94;;;-144.65;76.25
5146;BME280;2591;48.144;15.152;2023-01-30T10:03:57;76946.84;;;-144.65;76.20
5146;BME280;2591;48.144;15.152;2023-01-30T10:06:30;76955.00;;;-144.65;75.69
5146;BME280;2591;48.144;15.152;2023-01-30T10:09:06;76942.78;;;-144.65;75.23
5146;BME280;2591;48.144;15.152;2023-01-30T10:11:46;76938.69;;;-144.65;73.78
5146;BME280;2591;48.144;15.152;2023-01-30T10:14:43;76922.38;;;-144.65;73.51
5146;BME280;2591;48.144;15.152;2023-01-30T10:17:31;76928.50;;;-144.65;73.19
5146;BME280;2591;48.144;15.152;2023-01-30T10:20:15;76928.50;;;-144.65;73.47
5146;BME280;2591;48.144;15.152;2023-01-30T10:23:00;76926.47;;;-144.65;72.69
5146;BME280;2591;48.144;15.152;2023-01-30T10:25:33;76906.06;;;-144.65;73.10
5146;BME280;2591;48.144;15.152;2023-01-30T10:28:08;76910.16;;;-144.65;73.99
5146;BME280;2591;48.144;15.152;2023-01-30T10:30:39;76910.16;;;-144.65;73.39
5146;BME280;2591;48.144;15.152;2023-01-30T10:33:15;76904.03;;;-144.65;73.55
5146;BME280;2591;48.144;15.152;2023-01-30T10:35:51;76897.91;;;-144.65;73.24
5146;BME280;2591;48.144;15.152;2023-01-30T10:38:28;76885.66;;;-144.65;73.26
5146;BME280;2591;48.144;15.152;2023-01-30T10:41:04;76869.34;;;-144.65;72.62
5146;BME280;2591;48.144;15.152;2023-01-30T10:43:40;76869.34;;;-144.65;72.87
5146;BME280;2591;48.144;15.152;2023-01-30T10:46:23;76873.44;;;-144.65;72.93
5146;BME280;2591;48.144;15.152;2023-01-30T10:48:57;76861.19;;;-144.65;73.36
5146;BME280;2591;48.144;15.152;2023-01-30T10:51:34;76846.94;;;-144.65;73.29
5146;BME280;2591;48.144;15.152;2023-01-30T10:54:11;76806.13;;;-144.65;73.11
5146;BME280;2591;48.144;15.152;2023-01-30T10:56:49;76791.88;;;-144.65;73.32
5146;BME280;2591;48.144;15.152;2023-01-30T10:59:23;76767.41;;;-144.65;72.05
5146;BME280;2591;48.144;15.152;2023-01-30T11:01:58;76753.13;;;-144.65;71.65
5146;BME280;2591;48.144;15.152;2023-01-30T11:04:31;76734.78;;;-144.65;71.82
5146;BME280;2591;48.144;15.152;2023-01-30T11:07:01;76700.09;;;-144.65;72.18
5146;BME280;2591;48.144;15.152;2023-01-30T11:09:40;76685.81;;;-144.65;70.45
5146;BME280;2591;48.144;15.152;2023-01-30T11:12:09;76677.69;;;-144.65;70.18
5146;BME280;2591;48.144;15.152;2023-01-30T11:14:49;76698.06;;;-144.65;70.41
5146;BME280;2591;48.144;15.152;2023-01-30T11:17:19;76698.06;;;-144.65;71.04
5146;BME280;2591;48.144;15.152;2023-01-30T11:19:53;76702.16;;;-144.65;70.32
5146;BME280;2591;48.144;15.152;2023-01-30T11:22:23;76677.69;;;-144.65;69.93
5146;BME280;2591;48.144;15.152;2023-01-30T11:25:05;76694.00;;;-144.65;70.45
5146;BME280;2591;48.144;15.152;2023-01-30T11:27:40;76681.75;;;-144.65;70.14
5146;BME280;2591;48.144;15.152;2023-01-30T11:30:13;76661.38;;;-144.65;69.29
5146;BME280;2591;48.144;15.152;2023-01-30T11:32:44;76663.41;;;-144.65;69.21
5146;BME280;2591;48.144;15.152;2023-01-30T11:35:22;76679.72;;;-144.65;69.84
5146;BME280;2591;48.144;15.152;2023-01-30T11:37:51;76671.56;;;-144.65;69.57
5146;BME280;2591;48.144;15.152;2023-01-30T11:40:24;76685.81;;;-144.65;69.90
5146;BME280;2591;48.144;15.152;2023-01-30T11:43:02;76685.81;;;-144.65;70.23
5146;BME280;2591;48.144;15.152;2023-01-30T11:45:35;76685.81;;;-144.65;69.33
5146;BME280;2591;48.144;15.152;2023-01-30T11:48:12;76694.00;;;-144.65;70.25
5146;BME280;2591;48.144;15.152;2023-01-30T11:51:00;76706.22;;;-144.65;70.17
5146;BME280;2591;48.144;15.152;2023-01-30T11:53:33;76706.22;;;-144.65;70.40
5146;BME280;2591;48.144;15.152;2023-01-30T11:56:07;76714.38;;;-144.65;70.84
5146;BME280;2591;48.144;15.152;2023-01-30T11:58:40;76714.38;;;-144.65;71.25
5146;BME280;2591;48.144;15.152;2023-01-30T12:01:12;76694.00;;;-144.65;70.69
5146;BME280;2591;48.144;15.152;2023-01-30T12:03:47;76685.81;;;-144.65;70.83
5146;BME280;2591;48.144;15.152;2023-01-30T12:06:22;76671.56;;;-144.65;71.01
5146;BME280;2591;48.144;15.152;2023-01-30T12:08:51;76651.16;;;-144.65;70.93
5146;BME280;2591;48.144;15.152;2023-01-30T12:11:39;76645.03;;;-144.65;70.91
5146;BME280;2591;48.144;15.152;2023-01-30T12:14:18;76640.97;;;-144.65;71.89
5146;BME280;2591;48.144;15.152;2023-01-30T12:16:55;76634.84;;;-144.65;71.30
5146;BME280;2591;48.144;15.152;2023-01-30T12:19:34;76640.97;;;-144.65;71.83
5146;BME280;2591;48.144;15.152;2023-01-30T12:22:17;76665.44;;;-144.65;72.08
5146;BME280;2591;48.144;15.152;2023-01-30T12:24:56;76677.69;;;-144.65;72.45
5146;BME280;2591;48.144;15.152;2023-01-30T12:27:31;76685.81;;;-144.65;72.47
5146;BME280;2591;48.144;15.152;2023-01-30T12:30:18;76714.38;;;-144.65;73.83
5146;BME280;2591;48.144;15.152;2023-01-30T12:32:47;76712.34;;;-144.65;74.49
5146;BME280;2591;48.144;15.152;2023-01-30T12:35:16;76720.50;;;-144.65;74.98
5146;BME280;2591;48.144;15.152;2023-01-30T12:37:55;76714.38;;;-144.65;75.32
5146;BME280;2591;48.144;15.152;2023-01-30T12:40:35;76706.22;;;-144.65;75.59
5146;BME280;2591;48.144;15.152;2023-01-30T12:43:28;76706.22;;;-144.65;76.28
5146;BME280;2591;48.144;15.152;2023-01-30T12:46:10;76716.41;;;-144.65;76.88
5146;BME280;2591;48.144;15.152;2023-01-30T12:49:03;76716.41;;;-144.65;77.25
5146;BME280;2591;48.144;15.152;2023-01-30T12:51:52;76710.31;;;-144.65;77.83
5146;BME280;2591;48.144;15.152;2023-01-30T12:54:34;76698.06;;;-144.65;78.11
5146;BME280;2591;48.144;15.152;2023-01-30T12:57:16;76698.06;;;-144.65;78.94
5146;BME280;2591;48.144;15.152;2023-01-30T12:59:54;76685.81;;;-144.65;79.50
5146;BME280;2591;48.144;15.152;2023-01-30T13:02:35;76702.16;;;-144.65;79.70
5146;BME280;2591;48.144;15.152;2023-01-30T13:05:27;76714.38;;;-144.65;80.55
5146;BME280;2591;48.144;15.152;2023-01-30T13:08:07;76710.31;;;-144.65;81.39
5146;BME280;2591;48.144;15.152;2023-01-30T13:10:43;76710.31;;;-144.65;81.95
5146;BME280;2591;48.144;15.152;2023-01-30T13:13:17;76710.31;;;-144.65;82.48
5146;BME280;2591;48.144;15.152;2023-01-30T13:15:56;76726.63;;;-144.65;82.79
5146;BME280;2591;48.144;15.152;2023-01-30T13:18:31;76738.84;;;-144.65;83.69
5146;BME280;2591;48.144;15.152;2023-01-30T13:21:07;76732.72;;;-144.65;84.06